sensor_id;sensor_type;location;lat;lon;timestamp;P1;durP1;ratioP1;P2;durP2;ratioP2
21833;SDS011;11079;51.092;3.458;2024-01-15T00:00:24;3.93;;;1.90;;
21833;SDS011;11079;51.092;3.458;2024-01-15T00:02:53;5.20;;;2.30;;
21833;SDS011;11079;51.092;3.458;2024-01-15T00:05:33;5.07;;;2.23;;
21833;SDS011;11079;51.092;3.458;2024-01-15T00:08:01;6.53;;;2.27;;
21833;SDS011;11079;51.092;3.458;2024-01-15T00:10:30;7.03;;;2.60;;
21833;SDS011;11079;51.092;3.458;2024-01-15T00:13:08;6.93;;;2.33;;
21833;SDS011;11079;51.092;3.458;2024-01-15T00:15:38;5.13;;;2.20;;
21833;SDS011;11079;51.092;3.458;2024-01-15T00:18:11;14.10;;;2.67;;
21833;SDS011;11079;51.092;3.458;2024-01-15T00:20:48;4.77;;;2.20;;
21833;SDS011;11079;51.092;3.458;2024-01-15T00:23:16;6.10;;;2.33;;
21833;SDS011;11079;51.092;3.458;2024-01-15T00:25:44;2.97;;;2.10;;
21833;SDS011;11079;51.092;3.458;2024-01-15T00:28:13;7.57;;;2.40;;
21833;SDS011;11079;51.092;3.458;2024-01-15T00:30:39;8.13;;;2.77;;
21833;SDS011;11079;51.092;3.458;2024-01-15T00:33:11;6.20;;;2.60;;
21833;SDS011;11079;51.092;3.458;2024-01-15T00:35:42;6.33;;;2.30;;
21833;SDS011;11079;51.092;3.458;2024-01-15T00:38:10;4.00;;;2.37;;
21833;SDS011;11079;51.092;3.458;2024-01-15T00:40:39;7.00;;;2.33;;
21833;SDS011;11079;51.092;3.458;2024-01-15T00:43:09;6.83;;;2.40;;
21833;SDS011;11079;51.092;3.458;2024-01-15T00:45:44;8.17;;;2.53;;
21833;SDS011;11079;51.092;3.458;2024-01-15T00:48:15;8.48;;;2.40;;
21833;SDS011;11079;51.092;3.458;2024-01-15T00:50:48;5.63;;;2.67;;
21833;SDS011;11079;51.092;3.458;2024-01-15T00:53:14;3.85;;;2.42;;
21833;SDS011;11079;51.092;3.458;2024-01-15T00:55:41;5.77;;;2.63;;
21833;SDS011;11079;51.092;3.458;2024-01-15T00:58:07;9.27;;;2.88;;
21833;SDS011;11079;51.092;3.458;2024-01-15T01:00:33;3.93;;;2.20;;
21833;SDS011;11079;51.092;3.458;2024-01-15T01:03:02;6.20;;;2.83;;
21833;SDS011;11079;51.092;3.458;2024-01-15T01:05:34;8.88;;;2.75;;
21833;SDS011;11079;51.092;3.458;2024-01-15T01:08:19;6.97;;;2.80;;
21833;SDS011;11079;51.092;3.458;2024-01-15T01:11:03;11.97;;;3.40;;
21833;SDS011;11079;51.092;3.458;2024-01-15T01:13:48;6.43;;;2.55;;
21833;SDS011;11079;51.092;3.458;2024-01-15T01:16:29;5.63;;;2.55;;
21833;SDS011;11079;51.092;3.458;2024-01-15T01:19:10;8.27;;;2.30;;
21833;SDS011;11079;51.092;3.458;2024-01-15T01:22:17;5.35;;;2.33;;
21833;SDS011;11079;51.092;3.458;2024-01-15T01:25:00;5.88;;;3.33;;
21833;SDS011;11079;51.092;3.458;2024-01-15T01:31:27;5.55;;;2.03;;
21833;SDS011;11079;51.092;3.458;2024-01-15T01:34:04;4.70;;;2.65;;
21833;SDS011;11079;51.092;3.458;2024-01-15T01:36:53;4.87;;;2.07;;
21833;SDS011;11079;51.092;3.458;2024-01-15T01:39:41;4.97;;;2.15;;
21833;SDS011;11079;51.092;3.458;2024-01-15T01:45:28;5.37;;;2.17;;
21833;SDS011;11079;51.092;3.458;2024-01-15T01:48:09;4.78;;;2.15;;
21833;SDS011;11079;51.092;3.458;2024-01-15T01:51:02;4.00;;;2.55;;
21833;SDS011;11079;51.092;3.458;2024-01-15T01:53:33;5.43;;;2.00;;
21833;SDS011;11079;51.092;3.458;2024-01-15T01:56:28;4.13;;;2.27;;
21833;SDS011;11079;51.092;3.458;2024-01-15T01:59:23;6.20;;;2.15;;
21833;SDS011;11079;51.092;3.458;2024-01-15T02:02:08;10.83;;;2.67;;
21833;SDS011;11079;51.092;3.458;2024-01-15T02:04:39;3.53;;;2.07;;
21833;SDS011;11079;51.092;3.458;2024-01-15T02:10:48;5.63;;;2.67;;
21833;SDS011;11079;51.092;3.458;2024-01-15T02:13:30;7.47;;;3.10;;
21833;SDS011;11079;51.092;3.458;2024-01-15T02:16:17;9.17;;;2.93;;
21833;SDS011;11079;51.092;3.458;2024-01-15T02:19:14;6.83;;;2.83;;
21833;SDS011;11079;51.092;3.458;2024-01-15T02:21:43;5.77;;;2.60;;
21833;SDS011;11079;51.092;3.458;2024-01-15T02:24:27;6.40;;;2.70;;
21833;SDS011;11079;51.092;3.458;2024-01-15T02:27:02;6.53;;;2.50;;
21833;SDS011;11079;51.092;3.458;2024-01-15T02:29:44;6.23;;;2.70;;
21833;SDS011;11079;51.092;3.458;2024-01-15T02:32:13;5.73;;;2.57;;
21833;SDS011;11079;51.092;3.458;2024-01-15T02:34:43;8.13;;;2.87;;
21833;SDS011;11079;51.092;3.458;2024-01-15T02:37:08;4.40;;;2.53;;
21833;SDS011;11079;51.092;3.458;2024-01-15T02:39:43;7.57;;;2.47;;
21833;SDS011;11079;51.092;3.458;2024-01-15T02:42:43;8.00;;;2.50;;
21833;SDS011;11079;51.092;3.458;2024-01-15T02:45:11;4.20;;;2.43;;
21833;SDS011;11079;51.092;3.458;2024-01-15T02:47:40;4.00;;;2.50;;
21833;SDS011;11079;51.092;3.458;2024-01-15T02:50:06;5.77;;;2.47;;
21833;SDS011;11079;51.092;3.458;2024-01-15T02:52:33;6.73;;;2.27;;
21833;SDS011;11079;51.092;3.458;2024-01-15T02:55:02;5.23;;;2.27;;
21833;SDS011;11079;51.092;3.458;2024-01-15T02:57:32;8.25;;;2.55;;
21833;SDS011;11079;51.092;3.458;2024-01-15T03:00:00;4.20;;;1.77;;
21833;SDS011;11079;51.092;3.458;2024-01-15T03:02:26;6.17;;;2.03;;
21833;SDS011;11079;51.092;3.458;2024-01-15T03:05:02;6.13;;;1.90;;
21833;SDS011;11079;51.092;3.458;2024-01-15T03:07:35;12.97;;;2.37;;
21833;SDS011;11079;51.092;3.458;2024-01-15T03:10:19;4.90;;;1.73;;
21833;SDS011;11079;51.092;3.458;2024-01-15T03:12:46;5.80;;;1.90;;
21833;SDS011;11079;51.092;3.458;2024-01-15T03:15:15;3.83;;;2.10;;
21833;SDS011;11079;51.092;3.458;2024-01-15T03:17:46;9.00;;;2.57;;
21833;SDS011;11079;51.092;3.458;2024-01-15T03:20:11;5.43;;;2.27;;
21833;SDS011;11079;51.092;3.458;2024-01-15T03:22:40;5.57;;;2.30;;
21833;SDS011;11079;51.092;3.458;2024-01-15T03:25:06;5.37;;;1.80;;
21833;SDS011;11079;51.092;3.458;2024-01-15T03:27:32;7.20;;;2.43;;
21833;SDS011;11079;51.092;3.458;2024-01-15T03:30:01;4.03;;;2.47;;
21833;SDS011;11079;51.092;3.458;2024-01-15T03:32:31;9.13;;;2.20;;
21833;SDS011;11079;51.092;3.458;2024-01-15T03:34:57;6.93;;;2.67;;
21833;SDS011;11079;51.092;3.458;2024-01-15T03:37:24;8.17;;;2.40;;
21833;SDS011;11079;51.092;3.458;2024-01-15T03:39:53;6.47;;;1.83;;
21833;SDS011;11079;51.092;3.458;2024-01-15T03:42:22;6.17;;;1.90;;
21833;SDS011;11079;51.092;3.458;2024-01-15T03:44:51;4.43;;;1.90;;
21833;SDS011;11079;51.092;3.458;2024-01-15T03:47:19;8.33;;;2.43;;
21833;SDS011;11079;51.092;3.458;2024-01-15T03:49:51;3.37;;;1.67;;
21833;SDS011;11079;51.092;3.458;2024-01-15T03:52:23;6.23;;;1.97;;
21833;SDS011;11079;51.092;3.458;2024-01-15T03:54:58;4.93;;;1.70;;
21833;SDS011;11079;51.092;3.458;2024-01-15T03:57:24;8.27;;;2.20;;
21833;SDS011;11079;51.092;3.458;2024-01-15T03:59:50;5.73;;;1.70;;
21833;SDS011;11079;51.092;3.458;2024-01-15T04:02:17;8.13;;;1.87;;
21833;SDS011;11079;51.092;3.458;2024-01-15T04:04:43;3.87;;;1.70;;
21833;SDS011;11079;51.092;3.458;2024-01-15T04:07:09;6.53;;;2.07;;
21833;SDS011;11079;51.092;3.458;2024-01-15T04:09:35;2.57;;;1.97;;
21833;SDS011;11079;51.092;3.458;2024-01-15T04:12:04;5.60;;;1.97;;
21833;SDS011;11079;51.092;3.458;2024-01-15T04:14:32;9.30;;;1.50;;
21833;SDS011;11079;51.092;3.458;2024-01-15T04:16:59;5.20;;;1.90;;
21833;SDS011;11079;51.092;3.458;2024-01-15T04:19:25;5.30;;;2.03;;
21833;SDS011;11079;51.092;3.458;2024-01-15T04:21:52;2.17;;;1.37;;
21833;SDS011;11079;51.092;3.458;2024-01-15T04:24:17;5.13;;;1.90;;
21833;SDS011;11079;51.092;3.458;2024-01-15T04:26:45;2.33;;;1.57;;
21833;SDS011;11079;51.092;3.458;2024-01-15T04:29:10;5.73;;;2.00;;
21833;SDS011;11079;51.092;3.458;2024-01-15T04:31:46;8.67;;;1.93;;
21833;SDS011;11079;51.092;3.458;2024-01-15T04:34:12;4.17;;;1.77;;
21833;SDS011;11079;51.092;3.458;2024-01-15T04:36:45;2.90;;;1.60;;
21833;SDS011;11079;51.092;3.458;2024-01-15T04:39:13;7.27;;;1.67;;
21833;SDS011;11079;51.092;3.458;2024-01-15T04:41:41;5.13;;;1.70;;
21833;SDS011;11079;51.092;3.458;2024-01-15T04:44:07;5.70;;;2.40;;
21833;SDS011;11079;51.092;3.458;2024-01-15T04:46:37;3.27;;;1.60;;
21833;SDS011;11079;51.092;3.458;2024-01-15T04:49:03;5.17;;;1.60;;
21833;SDS011;11079;51.092;3.458;2024-01-15T04:51:34;6.60;;;2.10;;
21833;SDS011;11079;51.092;3.458;2024-01-15T04:54:00;2.10;;;1.43;;
21833;SDS011;11079;51.092;3.458;2024-01-15T04:56:31;11.83;;;2.07;;
21833;SDS011;11079;51.092;3.458;2024-01-15T04:59:03;6.40;;;2.40;;
21833;SDS011;11079;51.092;3.458;2024-01-15T05:01:35;5.03;;;1.67;;
21833;SDS011;11079;51.092;3.458;2024-01-15T05:04:13;6.93;;;1.83;;
21833;SDS011;11079;51.092;3.458;2024-01-15T05:06:41;10.43;;;2.00;;
21833;SDS011;11079;51.092;3.458;2024-01-15T05:09:07;7.57;;;1.90;;
21833;SDS011;11079;51.092;3.458;2024-01-15T05:11:44;6.93;;;1.67;;
21833;SDS011;11079;51.092;3.458;2024-01-15T05:14:09;5.30;;;1.57;;
21833;SDS011;11079;51.092;3.458;2024-01-15T05:16:39;4.43;;;1.70;;
21833;SDS011;11079;51.092;3.458;2024-01-15T05:19:07;4.63;;;1.30;;
21833;SDS011;11079;51.092;3.458;2024-01-15T05:21:33;6.83;;;1.70;;
21833;SDS011;11079;51.092;3.458;2024-01-15T05:24:00;4.87;;;1.73;;
21833;SDS011;11079;51.092;3.458;2024-01-15T05:26:25;3.57;;;1.67;;
21833;SDS011;11079;51.092;3.458;2024-01-15T05:28:52;6.10;;;1.90;;
21833;SDS011;11079;51.092;3.458;2024-01-15T05:31:24;4.53;;;1.23;;
21833;SDS011;11079;51.092;3.458;2024-01-15T05:33:55;5.27;;;1.93;;
21833;SDS011;11079;51.092;3.458;2024-01-15T05:36:21;4.13;;;1.53;;
21833;SDS011;11079;51.092;3.458;2024-01-15T05:38:50;4.40;;;1.90;;
21833;SDS011;11079;51.092;3.458;2024-01-15T05:41:22;11.73;;;2.10;;
21833;SDS011;11079;51.092;3.458;2024-01-15T05:43:48;5.83;;;2.00;;
21833;SDS011;11079;51.092;3.458;2024-01-15T05:46:21;9.93;;;2.10;;
21833;SDS011;11079;51.092;3.458;2024-01-15T05:48:47;7.63;;;1.83;;
21833;SDS011;11079;51.092;3.458;2024-01-15T05:51:17;5.43;;;1.80;;
21833;SDS011;11079;51.092;3.458;2024-01-15T05:53:57;5.20;;;1.90;;
21833;SDS011;11079;51.092;3.458;2024-01-15T05:56:24;8.60;;;2.23;;
21833;SDS011;11079;51.092;3.458;2024-01-15T05:58:52;6.10;;;1.53;;
21833;SDS011;11079;51.092;3.458;2024-01-15T06:01:20;6.47;;;2.00;;
21833;SDS011;11079;51.092;3.458;2024-01-15T06:03:45;5.73;;;2.13;;
21833;SDS011;11079;51.092;3.458;2024-01-15T06:06:14;5.60;;;1.70;;
21833;SDS011;11079;51.092;3.458;2024-01-15T06:08:46;5.17;;;1.53;;
21833;SDS011;11079;51.092;3.458;2024-01-15T06:11:12;4.80;;;2.00;;
21833;SDS011;11079;51.092;3.458;2024-01-15T06:13:38;7.23;;;1.63;;
21833;SDS011;11079;51.092;3.458;2024-01-15T06:16:14;5.30;;;1.80;;
21833;SDS011;11079;51.092;3.458;2024-01-15T06:18:42;6.13;;;1.47;;
21833;SDS011;11079;51.092;3.458;2024-01-15T06:21:14;4.47;;;1.80;;
21833;SDS011;11079;51.092;3.458;2024-01-15T06:23:41;4.85;;;1.55;;
21833;SDS011;11079;51.092;3.458;2024-01-15T06:26:08;7.20;;;1.60;;
21833;SDS011;11079;51.092;3.458;2024-01-15T06:28:41;3.33;;;1.70;;
21833;SDS011;11079;51.092;3.458;2024-01-15T06:31:08;6.10;;;1.40;;
21833;SDS011;11079;51.092;3.458;2024-01-15T06:33:45;3.93;;;1.40;;
21833;SDS011;11079;51.092;3.458;2024-01-15T06:36:13;8.07;;;2.10;;
21833;SDS011;11079;51.092;3.458;2024-01-15T06:38:43;3.33;;;1.30;;
21833;SDS011;11079;51.092;3.458;2024-01-15T06:41:11;8.77;;;1.90;;
21833;SDS011;11079;51.092;3.458;2024-01-15T06:43:40;6.57;;;1.63;;
21833;SDS011;11079;51.092;3.458;2024-01-15T06:46:34;9.30;;;2.37;;
21833;SDS011;11079;51.092;3.458;2024-01-15T06:49:00;9.63;;;1.63;;
21833;SDS011;11079;51.092;3.458;2024-01-15T06:51:32;5.77;;;1.40;;
21833;SDS011;11079;51.092;3.458;2024-01-15T06:54:19;5.37;;;1.47;;
21833;SDS011;11079;51.092;3.458;2024-01-15T06:56:47;4.73;;;1.50;;
21833;SDS011;11079;51.092;3.458;2024-01-15T06:59:17;4.67;;;1.30;;
21833;SDS011;11079;51.092;3.458;2024-01-15T07:01:48;3.53;;;1.90;;
21833;SDS011;11079;51.092;3.458;2024-01-15T07:04:15;6.57;;;1.73;;
21833;SDS011;11079;51.092;3.458;2024-01-15T07:09:46;7.40;;;2.10;;
21833;SDS011;11079;51.092;3.458;2024-01-15T07:12:14;4.90;;;1.77;;
21833;SDS011;11079;51.092;3.458;2024-01-15T07:14:45;4.10;;;1.37;;
21833;SDS011;11079;51.092;3.458;2024-01-15T07:17:11;5.23;;;2.40;;
21833;SDS011;11079;51.092;3.458;2024-01-15T07:19:37;4.20;;;1.73;;
21833;SDS011;11079;51.092;3.458;2024-01-15T07:22:03;6.17;;;1.30;;
21833;SDS011;11079;51.092;3.458;2024-01-15T07:24:29;3.17;;;1.13;;
21833;SDS011;11079;51.092;3.458;2024-01-15T07:26:55;3.87;;;1.53;;
21833;SDS011;11079;51.092;3.458;2024-01-15T07:29:20;5.23;;;1.63;;
21833;SDS011;11079;51.092;3.458;2024-01-15T07:31:49;2.80;;;1.77;;
21833;SDS011;11079;51.092;3.458;2024-01-15T07:34:16;5.30;;;1.57;;
21833;SDS011;11079;51.092;3.458;2024-01-15T07:36:43;3.97;;;1.50;;
21833;SDS011;11079;51.092;3.458;2024-01-15T07:39:09;4.23;;;1.47;;
21833;SDS011;11079;51.092;3.458;2024-01-15T07:41:35;4.33;;;1.60;;
21833;SDS011;11079;51.092;3.458;2024-01-15T07:44:01;5.80;;;1.73;;
21833;SDS011;11079;51.092;3.458;2024-01-15T07:46:27;7.73;;;1.77;;
21833;SDS011;11079;51.092;3.458;2024-01-15T07:48:53;5.27;;;1.83;;
21833;SDS011;11079;51.092;3.458;2024-01-15T07:51:22;1.97;;;1.07;;
21833;SDS011;11079;51.092;3.458;2024-01-15T07:53:48;5.50;;;2.00;;
21833;SDS011;11079;51.092;3.458;2024-01-15T07:56:14;7.10;;;2.17;;
21833;SDS011;11079;51.092;3.458;2024-01-15T07:58:39;4.43;;;1.60;;
21833;SDS011;11079;51.092;3.458;2024-01-15T08:01:05;5.20;;;1.90;;
21833;SDS011;11079;51.092;3.458;2024-01-15T08:03:31;4.93;;;1.40;;
21833;SDS011;11079;51.092;3.458;2024-01-15T08:05:57;6.70;;;2.23;;
21833;SDS011;11079;51.092;3.458;2024-01-15T08:08:24;6.13;;;1.67;;
21833;SDS011;11079;51.092;3.458;2024-01-15T08:10:51;8.20;;;1.97;;
21833;SDS011;11079;51.092;3.458;2024-01-15T08:13:17;5.67;;;1.67;;
21833;SDS011;11079;51.092;3.458;2024-01-15T08:15:43;5.30;;;2.43;;
21833;SDS011;11079;51.092;3.458;2024-01-15T08:18:09;5.07;;;2.10;;
21833;SDS011;11079;51.092;3.458;2024-01-15T08:20:35;4.33;;;2.23;;
21833;SDS011;11079;51.092;3.458;2024-01-15T08:23:00;6.73;;;1.30;;
21833;SDS011;11079;51.092;3.458;2024-01-15T08:25:26;3.70;;;1.50;;
21833;SDS011;11079;51.092;3.458;2024-01-15T08:27:52;3.60;;;1.40;;
21833;SDS011;11079;51.092;3.458;2024-01-15T08:30:17;6.07;;;1.50;;
21833;SDS011;11079;51.092;3.458;2024-01-15T08:32:44;1.90;;;1.10;;
21833;SDS011;11079;51.092;3.458;2024-01-15T08:35:10;1.75;;;1.13;;
21833;SDS011;11079;51.092;3.458;2024-01-15T08:37:36;7.75;;;1.33;;
21833;SDS011;11079;51.092;3.458;2024-01-15T08:40:03;4.65;;;1.20;;
21833;SDS011;11079;51.092;3.458;2024-01-15T08:42:29;5.93;;;1.10;;
21833;SDS011;11079;51.092;3.458;2024-01-15T08:44:55;5.93;;;1.23;;
21833;SDS011;11079;51.092;3.458;2024-01-15T08:47:20;4.55;;;1.48;;
21833;SDS011;11079;51.092;3.458;2024-01-15T08:49:46;3.75;;;1.13;;
21833;SDS011;11079;51.092;3.458;2024-01-15T08:52:12;6.22;;;1.25;;
21833;SDS011;11079;51.092;3.458;2024-01-15T08:54:38;4.13;;;1.20;;
21833;SDS011;11079;51.092;3.458;2024-01-15T08:57:04;4.10;;;1.25;;
21833;SDS011;11079;51.092;3.458;2024-01-15T08:59:30;4.32;;;1.33;;
21833;SDS011;11079;51.092;3.458;2024-01-15T09:01:55;3.00;;;0.98;;
21833;SDS011;11079;51.092;3.458;2024-01-15T09:04:24;2.80;;;1.23;;
21833;SDS011;11079;51.092;3.458;2024-01-15T09:06:50;8.45;;;1.52;;
21833;SDS011;11079;51.092;3.458;2024-01-15T09:09:16;4.47;;;1.15;;
21833;SDS011;11079;51.092;3.458;2024-01-15T09:11:41;5.75;;;1.40;;
21833;SDS011;11079;51.092;3.458;2024-01-15T09:14:07;4.70;;;1.30;;
21833;SDS011;11079;51.092;3.458;2024-01-15T09:16:34;5.50;;;1.48;;
21833;SDS011;11079;51.092;3.458;2024-01-15T09:19:00;7.90;;;1.75;;
21833;SDS011;11079;51.092;3.458;2024-01-15T09:21:26;4.85;;;1.50;;
21833;SDS011;11079;51.092;3.458;2024-01-15T09:23:51;4.20;;;1.23;;
21833;SDS011;11079;51.092;3.458;2024-01-15T09:26:17;7.87;;;1.97;;
21833;SDS011;11079;51.092;3.458;2024-01-15T09:28:42;6.97;;;2.00;;
21833;SDS011;11079;51.092;3.458;2024-01-15T09:31:09;4.25;;;1.55;;
21833;SDS011;11079;51.092;3.458;2024-01-15T09:33:35;3.67;;;1.52;;
21833;SDS011;11079;51.092;3.458;2024-01-15T09:36:01;5.05;;;1.77;;
21833;SDS011;11079;51.092;3.458;2024-01-15T09:38:29;4.47;;;1.67;;
21833;SDS011;11079;51.092;3.458;2024-01-15T09:40:56;4.03;;;1.65;;
21833;SDS011;11079;51.092;3.458;2024-01-15T09:43:22;5.95;;;1.48;;
21833;SDS011;11079;51.092;3.458;2024-01-15T09:45:49;7.40;;;1.77;;
21833;SDS011;11079;51.092;3.458;2024-01-15T09:48:15;4.35;;;1.33;;
21833;SDS011;11079;51.092;3.458;2024-01-15T09:50:41;6.15;;;1.52;;
21833;SDS011;11079;51.092;3.458;2024-01-15T09:53:07;6.70;;;1.48;;
21833;SDS011;11079;51.092;3.458;2024-01-15T09:55:35;3.67;;;1.08;;
21833;SDS011;11079;51.092;3.458;2024-01-15T09:58:03;2.13;;;0.95;;
21833;SDS011;11079;51.092;3.458;2024-01-15T10:00:29;7.30;;;1.05;;
21833;SDS011;11079;51.092;3.458;2024-01-15T10:02:58;3.42;;;1.25;;
21833;SDS011;11079;51.092;3.458;2024-01-15T10:05:25;4.45;;;1.42;;
21833;SDS011;11079;51.092;3.458;2024-01-15T10:07:52;6.63;;;1.30;;
21833;SDS011;11079;51.092;3.458;2024-01-15T10:10:19;5.60;;;1.35;;
21833;SDS011;11079;51.092;3.458;2024-01-15T10:12:47;5.00;;;1.40;;
21833;SDS011;11079;51.092;3.458;2024-01-15T10:15:13;4.38;;;0.98;;
21833;SDS011;11079;51.092;3.458;2024-01-15T10:17:39;5.65;;;1.38;;
21833;SDS011;11079;51.092;3.458;2024-01-15T10:20:09;5.30;;;1.65;;
21833;SDS011;11079;51.092;3.458;2024-01-15T10:22:38;5.63;;;1.50;;
21833;SDS011;11079;51.092;3.458;2024-01-15T10:25:05;6.95;;;1.98;;
21833;SDS011;11079;51.092;3.458;2024-01-15T10:27:31;5.13;;;1.65;;
21833;SDS011;11079;51.092;3.458;2024-01-15T10:30:00;6.35;;;1.55;;
21833;SDS011;11079;51.092;3.458;2024-01-15T10:32:27;5.30;;;1.80;;
21833;SDS011;11079;51.092;3.458;2024-01-15T10:34:53;3.57;;;1.50;;
21833;SDS011;11079;51.092;3.458;2024-01-15T10:37:19;4.50;;;1.30;;
21833;SDS011;11079;51.092;3.458;2024-01-15T10:39:46;4.43;;;1.23;;
21833;SDS011;11079;51.092;3.458;2024-01-15T10:42:11;3.33;;;1.48;;
21833;SDS011;11079;51.092;3.458;2024-01-15T10:44:37;6.05;;;1.38;;
21833;SDS011;11079;51.092;3.458;2024-01-15T10:47:04;4.50;;;1.65;;
21833;SDS011;11079;51.092;3.458;2024-01-15T10:49:30;4.35;;;1.05;;
21833;SDS011;11079;51.092;3.458;2024-01-15T10:51:56;2.83;;;1.30;;
21833;SDS011;11079;51.092;3.458;2024-01-15T10:54:22;6.40;;;1.55;;
21833;SDS011;11079;51.092;3.458;2024-01-15T10:56:49;5.28;;;1.35;;
21833;SDS011;11079;51.092;3.458;2024-01-15T10:59:16;4.10;;;1.50;;
21833;SDS011;11079;51.092;3.458;2024-01-15T11:01:44;5.20;;;1.50;;
21833;SDS011;11079;51.092;3.458;2024-01-15T11:04:11;3.78;;;1.90;;
21833;SDS011;11079;51.092;3.458;2024-01-15T11:06:41;6.85;;;1.30;;
21833;SDS011;11079;51.092;3.458;2024-01-15T11:09:08;8.15;;;1.63;;
21833;SDS011;11079;51.092;3.458;2024-01-15T11:11:44;5.80;;;1.95;;
21833;SDS011;11079;51.092;3.458;2024-01-15T11:14:12;3.42;;;1.08;;
21833;SDS011;11079;51.092;3.458;2024-01-15T11:17:09;7.40;;;1.45;;
21833;SDS011;11079;51.092;3.458;2024-01-15T11:25:02;2.38;;;1.23;;
21833;SDS011;11079;51.092;3.458;2024-01-15T11:27:45;3.75;;;1.42;;
21833;SDS011;11079;51.092;3.458;2024-01-15T11:30:18;2.47;;;1.23;;
21833;SDS011;11079;51.092;3.458;2024-01-15T11:32:47;5.32;;;1.25;;
21833;SDS011;11079;51.092;3.458;2024-01-15T11:35:13;3.63;;;1.27;;
21833;SDS011;11079;51.092;3.458;2024-01-15T11:40:20;4.85;;;1.30;;
21833;SDS011;11079;51.092;3.458;2024-01-15T11:43:08;8.68;;;1.20;;
21833;SDS011;11079;51.092;3.458;2024-01-15T11:45:34;4.32;;;1.50;;
21833;SDS011;11079;51.092;3.458;2024-01-15T11:50:43;5.85;;;1.70;;
21833;SDS011;11079;51.092;3.458;2024-01-15T11:53:13;8.45;;;1.60;;
21833;SDS011;11079;51.092;3.458;2024-01-15T11:55:41;4.28;;;1.65;;
21833;SDS011;11079;51.092;3.458;2024-01-15T11:58:10;9.27;;;1.80;;
21833;SDS011;11079;51.092;3.458;2024-01-15T12:00:45;3.43;;;1.53;;
21833;SDS011;11079;51.092;3.458;2024-01-15T12:03:14;7.23;;;1.67;;
21833;SDS011;11079;51.092;3.458;2024-01-15T12:05:40;9.00;;;1.57;;
21833;SDS011;11079;51.092;3.458;2024-01-15T12:08:09;4.67;;;1.43;;
21833;SDS011;11079;51.092;3.458;2024-01-15T12:10:38;6.67;;;1.70;;
21833;SDS011;11079;51.092;3.458;2024-01-15T12:13:09;8.13;;;2.23;;
21833;SDS011;11079;51.092;3.458;2024-01-15T12:15:39;9.57;;;1.90;;
21833;SDS011;11079;51.092;3.458;2024-01-15T12:18:07;7.00;;;2.00;;
21833;SDS011;11079;51.092;3.458;2024-01-15T12:20:33;6.90;;;2.17;;
21833;SDS011;11079;51.092;3.458;2024-01-15T12:23:00;3.20;;;1.50;;
21833;SDS011;11079;51.092;3.458;2024-01-15T12:25:43;8.90;;;2.33;;
21833;SDS011;11079;51.092;3.458;2024-01-15T12:28:09;7.20;;;1.47;;
21833;SDS011;11079;51.092;3.458;2024-01-15T12:30:35;8.23;;;1.70;;
21833;SDS011;11079;51.092;3.458;2024-01-15T12:33:03;7.38;;;1.70;;
21833;SDS011;11079;51.092;3.458;2024-01-15T12:35:29;5.80;;;1.53;;
21833;SDS011;11079;51.092;3.458;2024-01-15T12:37:55;12.95;;;2.13;;
21833;SDS011;11079;51.092;3.458;2024-01-15T12:40:21;12.15;;;1.70;;
21833;SDS011;11079;51.092;3.458;2024-01-15T12:42:48;11.13;;;2.67;;
21833;SDS011;11079;51.092;3.458;2024-01-15T12:45:14;13.63;;;2.35;;
21833;SDS011;11079;51.092;3.458;2024-01-15T12:47:40;9.77;;;1.50;;
21833;SDS011;11079;51.092;3.458;2024-01-15T12:50:10;9.15;;;1.85;;
21833;SDS011;11079;51.092;3.458;2024-01-15T12:52:37;7.88;;;1.35;;
21833;SDS011;11079;51.092;3.458;2024-01-15T12:55:05;5.68;;;1.23;;
21833;SDS011;11079;51.092;3.458;2024-01-15T12:57:32;8.98;;;2.08;;
21833;SDS011;11079;51.092;3.458;2024-01-15T12:59:58;7.70;;;1.55;;
21833;SDS011;11079;51.092;3.458;2024-01-15T13:02:24;6.05;;;1.50;;
21833;SDS011;11079;51.092;3.458;2024-01-15T13:04:50;6.88;;;1.67;;
21833;SDS011;11079;51.092;3.458;2024-01-15T13:07:16;8.43;;;1.40;;
21833;SDS011;11079;51.092;3.458;2024-01-15T13:09:42;5.50;;;1.60;;
21833;SDS011;11079;51.092;3.458;2024-01-15T13:12:08;5.63;;;1.92;;
21833;SDS011;11079;51.092;3.458;2024-01-15T13:14:34;9.00;;;2.40;;
21833;SDS011;11079;51.092;3.458;2024-01-15T13:17:05;6.00;;;1.80;;
21833;SDS011;11079;51.092;3.458;2024-01-15T13:19:33;4.30;;;1.90;;
21833;SDS011;11079;51.092;3.458;2024-01-15T13:21:59;6.73;;;1.73;;
21833;SDS011;11079;51.092;3.458;2024-01-15T13:24:25;5.55;;;1.50;;
21833;SDS011;11079;51.092;3.458;2024-01-15T13:26:51;9.05;;;1.80;;
21833;SDS011;11079;51.092;3.458;2024-01-15T13:29:17;6.90;;;1.53;;
21833;SDS011;11079;51.092;3.458;2024-01-15T13:31:43;3.90;;;1.50;;
21833;SDS011;11079;51.092;3.458;2024-01-15T13:34:12;4.53;;;1.90;;
21833;SDS011;11079;51.092;3.458;2024-01-15T13:36:38;5.50;;;1.73;;
21833;SDS011;11079;51.092;3.458;2024-01-15T13:39:04;8.03;;;1.70;;
21833;SDS011;11079;51.092;3.458;2024-01-15T13:41:34;5.60;;;2.00;;
21833;SDS011;11079;51.092;3.458;2024-01-15T13:44:00;8.50;;;1.97;;
21833;SDS011;11079;51.092;3.458;2024-01-15T13:46:25;7.97;;;1.93;;
21833;SDS011;11079;51.092;3.458;2024-01-15T13:48:51;7.90;;;2.47;;
21833;SDS011;11079;51.092;3.458;2024-01-15T13:51:18;7.47;;;2.03;;
21833;SDS011;11079;51.092;3.458;2024-01-15T13:53:43;8.20;;;2.20;;
21833;SDS011;11079;51.092;3.458;2024-01-15T13:56:09;6.67;;;1.90;;
21833;SDS011;11079;51.092;3.458;2024-01-15T13:58:36;6.77;;;1.93;;
21833;SDS011;11079;51.092;3.458;2024-01-15T14:01:02;11.27;;;2.27;;
21833;SDS011;11079;51.092;3.458;2024-01-15T14:03:30;7.77;;;1.73;;
21833;SDS011;11079;51.092;3.458;2024-01-15T14:05:56;6.83;;;2.13;;
21833;SDS011;11079;51.092;3.458;2024-01-15T14:08:22;8.57;;;2.50;;
21833;SDS011;11079;51.092;3.458;2024-01-15T14:10:48;11.03;;;2.30;;
21833;SDS011;11079;51.092;3.458;2024-01-15T14:13:14;6.03;;;1.93;;
21833;SDS011;11079;51.092;3.458;2024-01-15T14:15:41;5.63;;;1.97;;
21833;SDS011;11079;51.092;3.458;2024-01-15T14:18:07;7.13;;;1.87;;
21833;SDS011;11079;51.092;3.458;2024-01-15T14:20:39;2.97;;;1.27;;
21833;SDS011;11079;51.092;3.458;2024-01-15T14:23:04;4.13;;;1.30;;
21833;SDS011;11079;51.092;3.458;2024-01-15T14:25:30;4.67;;;1.73;;
21833;SDS011;11079;51.092;3.458;2024-01-15T14:27:59;6.05;;;1.60;;
21833;SDS011;11079;51.092;3.458;2024-01-15T14:30:30;14.02;;;2.53;;
21833;SDS011;11079;51.092;3.458;2024-01-15T14:32:57;9.05;;;2.47;;
21833;SDS011;11079;51.092;3.458;2024-01-15T14:35:22;10.87;;;1.90;;
21833;SDS011;11079;51.092;3.458;2024-01-15T14:37:48;4.43;;;1.50;;
21833;SDS011;11079;51.092;3.458;2024-01-15T14:40:14;7.90;;;1.55;;
21833;SDS011;11079;51.092;3.458;2024-01-15T14:42:43;5.40;;;1.60;;
21833;SDS011;11079;51.092;3.458;2024-01-15T14:45:09;12.20;;;1.95;;
21833;SDS011;11079;51.092;3.458;2024-01-15T14:47:39;6.40;;;1.80;;
21833;SDS011;11079;51.092;3.458;2024-01-15T14:50:07;4.07;;;1.52;;
21833;SDS011;11079;51.092;3.458;2024-01-15T14:52:36;8.75;;;2.95;;
21833;SDS011;11079;51.092;3.458;2024-01-15T14:55:23;7.07;;;1.63;;
21833;SDS011;11079;51.092;3.458;2024-01-15T14:57:51;5.78;;;1.27;;
21833;SDS011;11079;51.092;3.458;2024-01-15T15:00:18;7.05;;;1.85;;
21833;SDS011;11079;51.092;3.458;2024-01-15T15:02:46;8.35;;;1.80;;
21833;SDS011;11079;51.092;3.458;2024-01-15T15:05:13;6.82;;;1.92;;
21833;SDS011;11079;51.092;3.458;2024-01-15T15:07:42;4.00;;;1.20;;
21833;SDS011;11079;51.092;3.458;2024-01-15T15:10:16;7.35;;;2.00;;
21833;SDS011;11079;51.092;3.458;2024-01-15T15:12:42;5.43;;;2.25;;
21833;SDS011;11079;51.092;3.458;2024-01-15T15:15:11;7.30;;;2.13;;
21833;SDS011;11079;51.092;3.458;2024-01-15T15:17:38;6.00;;;1.88;;
21833;SDS011;11079;51.092;3.458;2024-01-15T15:20:05;6.53;;;1.77;;
21833;SDS011;11079;51.092;3.458;2024-01-15T15:22:31;8.03;;;1.97;;
21833;SDS011;11079;51.092;3.458;2024-01-15T15:24:57;4.40;;;1.47;;